sensor_id;sensor_type;location;lat;lon;timestamp;pressure;altitude;pressure_sealevel;temperature;humidity
56876;BME280;42622;49.972;8.452;2022-12-16T00:01:26;99758.09;;;-6.88;100.00
56876;BME280;42622;49.972;8.452;2022-12-16T00:03:56;99752.13;;;-6.89;100.00
56876;BME280;42622;49.972;8.452;2022-12-16T00:06:28;99764.97;;;-6.89;100.00
56876;BME280;42622;49.972;8.452;2022-12-16T00:08:54;99769.22;;;-6.88;100.00
56876;BME280;42622;49.972;8.452;2022-12-16T00:11:21;99760.69;;;-6.91;100.00
56876;BME280;42622;49.972;8.452;2022-12-16T00:13:47;99759.88;;;-6.98;100.00
56876;BME280;42622;49.972;8.452;2022-12-16T00:16:16;99769.31;;;-7.02;100.00
56876;BME280;42622;49.972;8.452;2022-12-16T00:18:46;99760.75;;;-7.01;100.00
56876;BME280;42622;49.972;8.452;2022-12-16T00:21:12;99762.44;;;-7.00;100.00
56876;BME280;42622;49.972;8.452;2022-12-16T00:23:38;99771.88;;;-7.03;100.00
56876;BME280;42622;49.972;8.452;2022-12-16T00:26:07;99765.91;;;-7.04;100.00
56876;BME280;42622;49.972;8.452;2022-12-16T00:28:33;99761.59;;;-7.03;100.00
56876;BME280;42622;49.972;8.452;2022-12-16T00:30:59;99758.22;;;-7.05;100.00
56876;BME280;42622;49.972;8.452;2022-12-16T00:33:26;99761.66;;;-7.11;100.00
56876;BME280;42622;49.972;8.452;2022-12-16T00:35:53;99758.28;;;-7.17;100.00
56876;BME280;42622;49.972;8.452;2022-12-16T00:38:22;99764.31;;;-7.20;100.00
56876;BME280;42622;49.972;8.452;2022-12-16T00:40:50;99760.03;;;-7.19;100.00
56876;BME280;42622;49.972;8.452;2022-12-16T00:43:15;99758.28;;;-7.17;100.00
56876;BME280;42622;49.972;8.452;2022-12-16T00:45:41;99763.44;;;-7.19;100.00
56876;BME280;42622;49.972;8.452;2022-12-16T00:48:07;99761.75;;;-7.25;100.00
56876;BME280;42622;49.972;8.452;2022-12-16T00:50:34;99772.06;;;-7.28;100.00
56876;BME280;42622;49.972;8.452;2022-12-16T00:53:01;99766.97;;;-7.37;100.00
56876;BME280;42622;49.972;8.452;2022-12-16T00:55:28;99773.00;;;-7.46;100.00
56876;BME280;42622;49.972;8.452;2022-12-16T00:57:53;99773.91;;;-7.53;100.00
56876;BME280;42622;49.972;8.452;2022-12-16T01:00:22;99774.78;;;-7.60;100.00
56876;BME280;42622;49.972;8.452;2022-12-16T01:02:50;99768.88;;;-7.70;100.00
56876;BME280;42622;49.972;8.452;2022-12-16T01:05:19;99773.19;;;-7.76;100.00
56876;BME280;42622;49.972;8.452;2022-12-16T01:07:47;99779.16;;;-7.82;100.00
56876;BME280;42622;49.972;8.452;2022-12-16T01:10:12;99786.91;;;-7.89;100.00
56876;BME280;42622;49.972;8.452;2022-12-16T01:12:38;99780.94;;;-7.96;100.00
56876;BME280;42622;49.972;8.452;2022-12-16T01:15:07;99776.69;;;-8.03;100.00
56876;BME280;42622;49.972;8.452;2022-12-16T01:17:33;99778.41;;;-8.08;100.00
56876;BME280;42622;49.972;8.452;2022-12-16T01:20:00;99780.16;;;-8.15;100.00
56876;BME280;42622;49.972;8.452;2022-12-16T01:22:30;99787.00;;;-8.22;100.00
56876;BME280;42622;49.972;8.452;2022-12-16T01:24:58;99803.25;;;-8.29;100.00
56876;BME280;42622;49.972;8.452;2022-12-16T01:27:24;99797.28;;;-8.32;100.00
56876;BME280;42622;49.972;8.452;2022-12-16T01:29:51;99802.44;;;-8.40;100.00
56876;BME280;42622;49.972;8.452;2022-12-16T01:32:18;99801.56;;;-8.48;100.00
56876;BME280;42622;49.972;8.452;2022-12-16T01:34:48;99811.84;;;-8.54;100.00
56876;BME280;42622;49.972;8.452;2022-12-16T01:37:15;99816.97;;;-8.63;100.00
56876;BME280;42622;49.972;8.452;2022-12-16T01:39:41;99828.06;;;-8.68;100.00
56876;BME280;42622;49.972;8.452;2022-12-16T01:42:19;99828.06;;;-8.75;100.00
56876;BME280;42622;49.972;8.452;2022-12-16T01:44:49;99827.22;;;-8.85;100.00
56876;BME280;42622;49.972;8.452;2022-12-16T01:47:21;99833.16;;;-8.91;100.00
56876;BME280;42622;49.972;8.452;2022-12-16T01:50:02;99837.44;;;-8.94;100.00
56876;BME280;42622;49.972;8.452;2022-12-16T01:52:36;99834.88;;;-8.99;100.00
56876;BME280;42622;49.972;8.452;2022-12-16T01:55:35;99834.88;;;-9.03;100.00
56876;BME280;42622;49.972;8.452;2022-12-16T01:58:19;99827.16;;;-9.16;100.00
56876;BME280;42622;49.972;8.452;2022-12-16T02:00:45;99832.28;;;-9.20;100.00
56876;BME280;42622;49.972;8.452;2022-12-16T02:03:11;99838.22;;;-9.23;100.00
56876;BME280;42622;49.972;8.452;2022-12-16T02:05:42;99833.09;;;-9.27;100.00
56876;BME280;42622;49.972;8.452;2022-12-16T02:08:12;99836.50;;;-9.33;100.00
56876;BME280;42622;49.972;8.452;2022-12-16T02:11:34;99833.94;;;-9.39;100.00
56876;BME280;42622;49.972;8.452;2022-12-16T02:14:25;99849.25;;;-9.48;100.00
56876;BME280;42622;49.972;8.452;2022-12-16T02:17:09;99839.84;;;-9.55;100.00
56876;BME280;42622;49.972;8.452;2022-12-16T02:23:19;99844.91;;;-9.68;100.00
56876;BME280;42622;49.972;8.452;2022-12-16T02:35:55;99840.50;;;-9.96;100.00
56876;BME280;42622;49.972;8.452;2022-12-16T02:39:03;99837.88;;;-10.08;100.00
56876;BME280;42622;49.972;8.452;2022-12-16T02:42:03;99835.25;;;-10.18;100.00
56876;BME280;42622;49.972;8.452;2022-12-16T02:47:45;99822.44;;;-10.28;100.00
56876;BME280;42622;49.972;8.452;2022-12-16T02:50:23;99831.81;;;-10.29;100.00
56876;BME280;42622;49.972;8.452;2022-12-16T02:52:55;99832.63;;;-10.33;100.00
56876;BME280;42622;49.972;8.452;2022-12-16T02:59:07;99828.31;;;-10.40;100.00
56876;BME280;42622;49.972;8.452;2022-12-16T03:02:18;99832.56;;;-10.44;100.00
56876;BME280;42622;49.972;8.452;2022-12-16T03:07:51;99835.94;;;-10.48;100.00
56876;BME280;42622;49.972;8.452;2022-12-16T03:10:29;99833.34;;;-10.49;100.00
56876;BME280;42622;49.972;8.452;2022-12-16T03:13:04;99829.94;;;-10.53;100.00
56876;BME280;42622;49.972;8.452;2022-12-16T03:15:35;99839.25;;;-10.58;100.00
56876;BME280;42622;49.972;8.452;2022-12-16T03:18:06;99847.75;;;-10.62;100.00
56876;BME280;42622;49.972;8.452;2022-12-16T03:20:46;99843.47;;;-10.65;100.00
56876;BME280;42622;49.972;8.452;2022-12-16T03:23:29;99845.16;;;-10.67;100.00
56876;BME280;42622;49.972;8.452;2022-12-16T03:26:07;99844.28;;;-10.67;100.00
56876;BME280;42622;49.972;8.452;2022-12-16T03:29:06;99840.03;;;-10.70;100.00
56876;BME280;42622;49.972;8.452;2022-12-16T03:34:52;99847.66;;;-10.71;100.00
56876;BME280;42622;49.972;8.452;2022-12-16T03:37:30;99844.25;;;-10.73;100.00
56876;BME280;42622;49.972;8.452;2022-12-16T03:40:03;99846.78;;;-10.75;100.00
56876;BME280;42622;49.972;8.452;2022-12-16T03:42:35;99856.13;;;-10.75;100.00
56876;BME280;42622;49.972;8.452;2022-12-16T03:45:05;99852.69;;;-10.79;100.00
56876;BME280;42622;49.972;8.452;2022-12-16T03:47:36;99849.31;;;-10.81;100.00
56876;BME280;42622;49.972;8.452;2022-12-16T03:50:02;99855.25;;;-10.79;100.00
56876;BME280;42622;49.972;8.452;2022-12-16T03:52:28;99855.25;;;-10.79;100.00
56876;BME280;42622;49.972;8.452;2022-12-16T03:54:54;99857.81;;;-10.79;100.00
56876;BME280;42622;49.972;8.452;2022-12-16T03:57:20;99857.78;;;-10.82;100.00
56876;BME280;42622;49.972;8.452;2022-12-16T03:59:46;99860.41;;;-10.77;100.00
56876;BME280;42622;49.972;8.452;2022-12-16T04:02:11;99862.91;;;-10.79;100.00
56876;BME280;42622;49.972;8.452;2022-12-16T04:04:37;99862.03;;;-10.82;100.00
56876;BME280;42622;49.972;8.452;2022-12-16T04:07:04;99871.44;;;-10.78;100.00
56876;BME280;42622;49.972;8.452;2022-12-16T04:09:46;99868.03;;;-10.80;100.00
56876;BME280;42622;49.972;8.452;2022-12-16T04:12:13;99868.00;;;-10.84;100.00
56876;BME280;42622;49.972;8.452;2022-12-16T04:14:57;99865.41;;;-10.88;100.00
56876;BME280;42622;49.972;8.452;2022-12-16T04:17:42;99874.69;;;-10.92;100.00
56876;BME280;42622;49.972;8.452;2022-12-16T04:20:35;99873.81;;;-10.98;100.00
56876;BME280;42622;49.972;8.452;2022-12-16T04:23:28;99884.00;;;-10.98;100.00
56876;BME280;42622;49.972;8.452;2022-12-16T04:26:14;99881.41;;;-11.03;100.00
56876;BME280;42622;49.972;8.452;2022-12-16T04:28:41;99887.34;;;-11.05;100.00
56876;BME280;42622;49.972;8.452;2022-12-16T04:31:07;99888.13;;;-11.10;100.00
56876;BME280;42622;49.972;8.452;2022-12-16T04:33:33;99901.69;;;-11.14;100.00
56876;BME280;42622;49.972;8.452;2022-12-16T04:36:18;99897.44;;;-11.15;100.00
56876;BME280;42622;49.972;8.452;2022-12-16T04:39:03;99897.44;;;-11.16;100.00
56876;BME280;42622;49.972;8.452;2022-12-16T04:41:54;99906.75;;;-11.17;100.00
56876;BME280;42622;49.972;8.452;2022-12-16T04:44:39;99909.31;;;-11.18;100.00
56876;BME280;42622;49.972;8.452;2022-12-16T04:47:23;99916.06;;;-11.22;100.00
56876;BME280;42622;49.972;8.452;2022-12-16T04:50:08;99913.50;;;-11.23;100.00
56876;BME280;42622;49.972;8.452;2022-12-16T04:52:52;99911.00;;;-11.19;100.00
56876;BME280;42622;49.972;8.452;2022-12-16T04:55:37;99909.31;;;-11.17;100.00
56876;BME280;42622;49.972;8.452;2022-12-16T04:58:22;99922.91;;;-11.18;100.00
56876;BME280;42622;49.972;8.452;2022-12-16T05:01:06;99924.63;;;-11.20;100.00
56876;BME280;42622;49.972;8.452;2022-12-16T05:03:50;99923.72;;;-11.20;100.00
56876;BME280;42622;49.972;8.452;2022-12-16T05:06:35;99924.56;;;-11.23;100.00
56876;BME280;42622;49.972;8.452;2022-12-16T05:09:19;99939.88;;;-11.23;100.00
56876;BME280;42622;49.972;8.452;2022-12-16T05:12:04;99940.69;;;-11.24;100.00
56876;BME280;42622;49.972;8.452;2022-12-16T05:14:48;99943.25;;;-11.24;100.00
56876;BME280;42622;49.972;8.452;2022-12-16T05:17:32;99942.41;;;-11.24;100.00
56876;BME280;42622;49.972;8.452;2022-12-16T05:20:16;99951.75;;;-11.25;100.00
56876;BME280;42622;49.972;8.452;2022-12-16T05:23:01;99955.16;;;-11.26;100.00
56876;BME280;42622;49.972;8.452;2022-12-16T05:25:45;99965.34;;;-11.26;100.00
56876;BME280;42622;49.972;8.452;2022-12-16T05:28:29;99959.34;;;-11.28;100.00
56876;BME280;42622;49.972;8.452;2022-12-16T05:31:14;99960.19;;;-11.29;100.00
56876;BME280;42622;49.972;8.452;2022-12-16T05:33:59;99977.16;;;-11.31;100.00
56876;BME280;42622;49.972;8.452;2022-12-16T05:36:43;99979.66;;;-11.36;100.00
56876;BME280;42622;49.972;8.452;2022-12-16T05:39:28;99982.19;;;-11.39;100.00
56876;BME280;42622;49.972;8.452;2022-12-16T05:42:12;99994.03;;;-11.42;100.00
56876;BME280;42622;49.972;8.452;2022-12-16T05:44:56;100002.53;;;-11.43;100.00
56876;BME280;42622;49.972;8.452;2022-12-16T05:47:41;99995.66;;;-11.47;100.00
56876;BME280;42622;49.972;8.452;2022-12-16T05:50:25;100012.63;;;-11.51;100.00
56876;BME280;42622;49.972;8.452;2022-12-16T05:53:10;100007.53;;;-11.51;100.00
56876;BME280;42622;49.972;8.452;2022-12-16T05:55:55;100015.09;;;-11.56;100.00
56876;BME280;42622;49.972;8.452;2022-12-16T05:58:57;100014.22;;;-11.58;100.00
56876;BME280;42622;49.972;8.452;2022-12-16T06:01:41;100019.28;;;-11.61;100.00
56876;BME280;42622;49.972;8.452;2022-12-16T06:04:25;100019.28;;;-11.61;100.00
56876;BME280;42622;49.972;8.452;2022-12-16T06:07:09;100029.47;;;-11.62;100.00
56876;BME280;42622;49.972;8.452;2022-12-16T06:09:54;100029.41;;;-11.64;100.00
56876;BME280;42622;49.972;8.452;2022-12-16T06:12:38;100037.06;;;-11.65;100.00
56876;BME280;42622;49.972;8.452;2022-12-16T06:15:22;100037.88;;;-11.68;100.00
56876;BME280;42622;49.972;8.452;2022-12-16T06:18:07;100044.63;;;-11.70;100.00
56876;BME280;42622;49.972;8.452;2022-12-16T06:20:51;100047.94;;;-11.75;100.00
56876;BME280;42622;49.972;8.452;2022-12-16T06:23:35;100049.53;;;-11.82;100.00
56876;BME280;42622;49.972;8.452;2022-12-16T06:26:20;100051.22;;;-11.84;100.00
56876;BME280;42622;49.972;8.452;2022-12-16T06:29:15;100058.81;;;-11.87;100.00
56876;BME280;42622;49.972;8.452;2022-12-16T06:31:59;100065.59;;;-11.89;100.00
56876;BME280;42622;49.972;8.452;2022-12-16T06:34:44;100064.69;;;-11.91;100.00
56876;BME280;42622;49.972;8.452;2022-12-16T06:37:28;100068.94;;;-11.92;100.00
56876;BME280;42622;49.972;8.452;2022-12-16T06:40:12;100074.84;;;-11.94;100.00
56876;BME280;42622;49.972;8.452;2022-12-16T06:42:56;100072.22;;;-11.99;100.00
56876;BME280;42622;49.972;8.452;2022-12-16T06:45:51;100079.00;;;-12.01;100.00
56876;BME280;42622;49.972;8.452;2022-12-16T06:48:36;100089.19;;;-12.01;100.00
56876;BME280;42622;49.972;8.452;2022-12-16T06:51:20;100099.34;;;-12.02;100.00
56876;BME280;42622;49.972;8.452;2022-12-16T06:54:04;100098.41;;;-12.08;100.00
56876;BME280;42622;49.972;8.452;2022-12-16T06:56:48;100101.75;;;-12.09;100.00
56876;BME280;42622;49.972;8.452;2022-12-16T06:59:33;100112.84;;;-12.08;100.00
56876;BME280;42622;49.972;8.452;2022-12-16T07:02:17;100110.19;;;-12.13;100.00
56876;BME280;42622;49.972;8.452;2022-12-16T07:05:02;100114.47;;;-12.12;100.00
56876;BME280;42622;49.972;8.452;2022-12-16T07:07:49;100113.69;;;-12.08;100.00
56876;BME280;42622;49.972;8.452;2022-12-16T07:10:35;100126.38;;;-12.09;100.00
56876;BME280;42622;49.972;8.452;2022-12-16T07:13:19;100127.22;;;-12.12;100.00
56876;BME280;42622;49.972;8.452;2022-12-16T07:16:04;100139.03;;;-12.14;100.00
56876;BME280;42622;49.972;8.452;2022-12-16T07:18:48;100139.00;;;-12.17;100.00
56876;BME280;42622;49.972;8.452;2022-12-16T07:21:33;100147.53;;;-12.13;100.00
56876;BME280;42622;49.972;8.452;2022-12-16T07:24:17;100162.06;;;-12.09;100.00
56876;BME280;42622;49.972;8.452;2022-12-16T07:27:01;100152.69;;;-12.12;100.00
56876;BME280;42622;49.972;8.452;2022-12-16T07:29:46;100152.69;;;-12.12;100.00
56876;BME280;42622;49.972;8.452;2022-12-16T07:32:30;100162.81;;;-12.13;100.00
56876;BME280;42622;49.972;8.452;2022-12-16T07:35:14;100167.97;;;-12.12;100.00
56876;BME280;42622;49.972;8.452;2022-12-16T07:37:58;100171.44;;;-12.08;100.00
56876;BME280;42622;49.972;8.452;2022-12-16T07:40:43;100177.41;;;-12.06;100.00
56876;BME280;42622;49.972;8.452;2022-12-16T07:43:27;100173.16;;;-12.06;100.00
56876;BME280;42622;49.972;8.452;2022-12-16T07:46:11;100184.34;;;-11.99;100.00
56876;BME280;42622;49.972;8.452;2022-12-16T07:48:56;100185.25;;;-11.95;100.00
56876;BME280;42622;49.972;8.452;2022-12-16T07:51:40;100188.69;;;-11.93;100.00
56876;BME280;42622;49.972;8.452;2022-12-16T07:54:25;100197.22;;;-11.91;100.00
56876;BME280;42622;49.972;8.452;2022-12-16T07:57:09;100200.66;;;-11.89;100.00
56876;BME280;42622;49.972;8.452;2022-12-16T07:59:53;100207.53;;;-11.85;100.00
56876;BME280;42622;49.972;8.452;2022-12-16T08:02:38;100204.19;;;-11.81;100.00
56876;BME280;42622;49.972;8.452;2022-12-16T08:05:22;100221.41;;;-11.69;100.00
56876;BME280;42622;49.972;8.452;2022-12-16T08:08:06;100226.66;;;-11.62;100.00
56876;BME280;42622;49.972;8.452;2022-12-16T08:10:50;100232.72;;;-11.55;100.00
56876;BME280;42622;49.972;8.452;2022-12-16T08:13:35;100228.56;;;-11.48;100.00
56876;BME280;42622;49.972;8.452;2022-12-16T08:16:19;100228.69;;;-11.42;100.00
56876;BME280;42622;49.972;8.452;2022-12-16T08:19:03;100231.34;;;-11.36;100.00
56876;BME280;42622;49.972;8.452;2022-12-16T08:21:48;100238.28;;;-11.27;100.00
56876;BME280;42622;49.972;8.452;2022-12-16T08:24:32;100241.00;;;-11.20;100.00
56876;BME280;42622;49.972;8.452;2022-12-16T08:27:16;100246.16;;;-11.14;100.00
56876;BME280;42622;49.972;8.452;2022-12-16T08:30:01;100256.59;;;-11.01;100.00
56876;BME280;42622;49.972;8.452;2022-12-16T08:32:45;100260.13;;;-10.92;100.00
56876;BME280;42622;49.972;8.452;2022-12-16T08:35:29;100265.41;;;-10.82;100.00
56876;BME280;42622;49.972;8.452;2022-12-16T08:38:14;100273.19;;;-10.75;100.00
56876;BME280;42622;49.972;8.452;2022-12-16T08:40:58;100278.41;;;-10.67;100.00
56876;BME280;42622;49.972;8.452;2022-12-16T08:43:42;100278.56;;;-10.58;100.00
56876;BME280;42622;49.972;8.452;2022-12-16T08:46:26;100277.81;;;-10.49;100.00
56876;BME280;42622;49.972;8.452;2022-12-16T08:49:10;100288.22;;;-10.39;100.00
56876;BME280;42622;49.972;8.452;2022-12-16T08:51:55;100287.47;;;-10.30;100.00
56876;BME280;42622;49.972;8.452;2022-12-16T08:54:39;100297.81;;;-10.19;100.00
56876;BME280;42622;49.972;8.452;2022-12-16T08:57:23;100300.53;;;-10.08;100.00
56876;BME280;42622;49.972;8.452;2022-12-16T09:00:08;100310.13;;;-9.91;100.00
56876;BME280;42622;49.972;8.452;2022-12-16T09:02:59;100301.78;;;-9.76;100.00
56876;BME280;42622;49.972;8.452;2022-12-16T09:05:45;100316.44;;;-9.63;100.00
56876;BME280;42622;49.972;8.452;2022-12-16T09:08:31;100307.19;;;-9.51;100.00
56876;BME280;42622;49.972;8.452;2022-12-16T09:11:15;100313.31;;;-9.39;100.00
56876;BME280;42622;49.972;8.452;2022-12-16T09:14:00;100311.75;;;-9.23;100.00
56876;BME280;42622;49.972;8.452;2022-12-16T09:16:44;100315.31;;;-9.08;100.00
56876;BME280;42622;49.972;8.452;2022-12-16T09:19:28;100320.63;;;-8.93;100.00
56876;BME280;42622;49.972;8.452;2022-12-16T09:22:13;100328.53;;;-8.62;100.00
56876;BME280;42622;49.972;8.452;2022-12-16T09:24:57;100320.16;;;-8.42;100.00
56876;BME280;42622;49.972;8.452;2022-12-16T09:27:41;100321.97;;;-8.25;100.00
56876;BME280;42622;49.972;8.452;2022-12-16T09:30:26;100317.81;;;-8.08;100.00
56876;BME280;42622;49.972;8.452;2022-12-16T09:33:10;100322.19;;;-7.90;100.00
56876;BME280;42622;49.972;8.452;2022-12-16T09:35:54;100317.16;;;-7.64;100.00
56876;BME280;42622;49.972;8.452;2022-12-16T09:38:39;100324.06;;;-7.46;100.00
56876;BME280;42622;49.972;8.452;2022-12-16T09:41:41;100324.09;;;-7.35;100.00
56876;BME280;42622;49.972;8.452;2022-12-16T09:45:00;100328.44;;;-7.24;100.00
56876;BME280;42622;49.972;8.452;2022-12-16T09:50:42;100315.63;;;-7.10;100.00
56876;BME280;42622;49.972;8.452;2022-12-16T09:53:33;100321.63;;;-7.00;100.00
56876;BME280;42622;49.972;8.452;2022-12-16T09:56:30;100316.53;;;-6.88;100.00
56876;BME280;42622;49.972;8.452;2022-12-16T09:59:28;100324.25;;;-6.74;100.00
56876;BME280;42622;49.972;8.452;2022-12-16T10:02:18;100325.97;;;-6.59;100.00
56876;BME280;42622;49.972;8.452;2022-12-16T10:05:17;100328.53;;;-6.41;100.00
56876;BME280;42622;49.972;8.452;2022-12-16T10:08:40;100329.34;;;-6.22;100.00
56876;BME280;42622;49.972;8.452;2022-12-16T10:15:18;100326.63;;;-5.62;100.00
56876;BME280;42622;49.972;8.452;2022-12-16T10:18:31;100329.16;;;-5.50;100.00
56876;BME280;42622;49.972;8.452;2022-12-16T10:21:35;100315.28;;;-5.24;100.00
56876;BME280;42622;49.972;8.452;2022-12-16T10:24:52;100324.59;;;-5.02;100.00
56876;BME280;42622;49.972;8.452;2022-12-16T10:27:47;100328.78;;;-4.84;100.00
56876;BME280;42622;49.972;8.452;2022-12-16T10:30:36;100337.34;;;-4.76;100.00
56876;BME280;42622;49.972;8.452;2022-12-16T10:33:27;100325.25;;;-4.71;100.00
56876;BME280;42622;49.972;8.452;2022-12-16T10:36:19;100340.66;;;-4.60;100.00
56876;BME280;42622;49.972;8.452;2022-12-16T10:39:28;100335.41;;;-4.48;100.00
56876;BME280;42622;49.972;8.452;2022-12-16T10:42:46;100337.88;;;-4.33;100.00
56876;BME280;42622;49.972;8.452;2022-12-16T10:45:44;100344.63;;;-4.16;100.00
56876;BME280;42622;49.972;8.452;2022-12-16T10:48:34;100342.75;;;-4.02;100.00
56876;BME280;42622;49.972;8.452;2022-12-16T10:51:22;100343.47;;;-3.89;100.00
56876;BME280;42622;49.972;8.452;2022-12-16T10:54:23;100347.66;;;-3.77;100.00
56876;BME280;42622;49.972;8.452;2022-12-16T11:01:25;100349.31;;;-3.70;100.00
56876;BME280;42622;49.972;8.452;2022-12-16T11:04:35;100346.69;;;-3.67;100.00
56876;BME280;42622;49.972;8.452;2022-12-16T11:10:41;100334.47;;;-3.53;100.00
56876;BME280;42622;49.972;8.452;2022-12-16T11:16:26;100336.97;;;-3.47;100.00
56876;BME280;42622;49.972;8.452;2022-12-16T11:19:29;100330.03;;;-3.42;100.00
56876;BME280;42622;49.972;8.452;2022-12-16T11:22:22;100337.66;;;-3.32;100.00
56876;BME280;42622;49.972;8.452;2022-12-16T11:25:20;100347.00;;;-3.22;100.00
56876;BME280;42622;49.972;8.452;2022-12-16T11:28:16;100345.97;;;-3.09;100.00
56876;BME280;42622;49.972;8.452;2022-12-16T11:31:11;100350.97;;;-2.95;100.00
56876;BME280;42622;49.972;8.452;2022-12-16T11:34:01;100352.47;;;-2.80;100.00
56876;BME280;42622;49.972;8.452;2022-12-16T11:36:49;100346.16;;;-2.61;100.00
56876;BME280;42622;49.972;8.452;2022-12-16T11:39:36;100347.44;;;-2.32;100.00
56876;BME280;42622;49.972;8.452;2022-12-16T11:42:27;100352.19;;;-1.18;100.00
56876;BME280;42622;49.972;8.452;2022-12-16T11:45:18;100356.03;;;0.46;100.00
56876;BME280;42622;49.972;8.452;2022-12-16T11:48:32;100349.44;;;1.23;100.00
56876;BME280;42622;49.972;8.452;2022-12-16T11:51:27;100343.88;;;1.07;100.00
56876;BME280;42622;49.972;8.452;2022-12-16T11:54:22;100354.31;;;1.06;100.00
56876;BME280;42622;49.972;8.452;2022-12-16T11:57:46;100349.34;;;1.26;100.00
56876;BME280;42622;49.972;8.452;2022-12-16T12:00:56;100365.34;;;1.97;100.00
56876;BME280;42622;49.972;8.452;2022-12-16T12:03:49;100373.16;;;2.47;100.00
56876;BME280;42622;49.972;8.452;2022-12-16T12:07:09;100367.41;;;2.85;100.00
56876;BME280;42622;49.972;8.452;2022-12-16T12:13:51;100379.38;;;3.82;97.15
56876;BME280;42622;49.972;8.452;2022-12-16T12:23:52;100384.19;;;5.67;85.30
56876;BME280;42622;49.972;8.452;2022-12-16T12:27:11;100382.53;;;6.70;79.44
56876;BME280;42622;49.972;8.452;2022-12-16T12:30:12;100393.91;;;7.36;75.29
56876;BME280;42622;49.972;8.452;2022-12-16T12:36:37;100401.81;;;6.54;77.32
56876;BME280;42622;49.972;8.452;2022-12-16T12:39:53;100393.16;;;6.52;78.38
56876;BME280;42622;49.972;8.452;2022-12-16T12:42:53;100403.25;;;6.42;77.31
56876;BME280;42622;49.972;8.452;2022-12-16T12:46:13;100404.81;;;6.97;75.22
56876;BME280;42622;49.972;8.452;2022-12-16T12:49:23;100398.91;;;7.40;72.81
56876;BME280;42622;49.972;8.452;2022-12-16T12:53:01;100410.72;;;7.17;74.09
56876;BME280;42622;49.972;8.452;2022-12-16T12:56:48;100421.22;;;7.17;74.76
56876;BME280;42622;49.972;8.452;2022-12-16T13:00:21;100425.66;;;6.49;75.63
56876;BME280;42622;49.972;8.452;2022-12-16T13:06:37;100425.19;;;5.13;77.92
56876;BME280;42622;49.972;8.452;2022-12-16T13:09:34;100422.75;;;3.42;81.97
56876;BME280;42622;49.972;8.452;2022-12-16T13:12:31;100427.97;;;1.95;86.31
56876;BME280;42622;49.972;8.452;2022-12-16T13:15:38;100430.06;;;0.97;88.19
56876;BME280;42622;49.972;8.452;2022-12-16T13:18:31;100436.75;;;0.41;89.96
56876;BME280;42622;49.972;8.452;2022-12-16T13:24:45;100439.13;;;-0.19;92.09
56876;BME280;42622;49.972;8.452;2022-12-16T13:27:54;100436.91;;;-0.36;92.66
56876;BME280;42622;49.972;8.452;2022-12-16T13:30:57;100442.41;;;-0.49;92.98
56876;BME280;42622;49.972;8.452;2022-12-16T13:33:51;100443.44;;;-0.57;92.56
56876;BME280;42622;49.972;8.452;2022-12-16T13:36:39;100457.50;;;-0.67;92.86
56876;BME280;42622;49.972;8.452;2022-12-16T13:39:29;100458.69;;;-0.82;93.14
56876;BME280;42622;49.972;8.452;2022-12-16T13:46:29;100473.84;;;-1.04;93.54
56876;BME280;42622;49.972;8.452;2022-12-16T13:48:49;100474.94;;;-1.16;93.62
56876;BME280;42622;49.972;8.452;2022-12-16T13:52:01;100476.88;;;-1.27;93.85
56876;BME280;42622;49.972;8.452;2022-12-16T13:54:59;100477.84;;;-1.33;94.33
56876;BME280;42622;49.972;8.452;2022-12-16T13:58:04;100485.66;;;-1.36;94.53
56876;BME280;42622;49.972;8.452;2022-12-16T14:01:04;100485.78;;;-1.42;94.19
56876;BME280;42622;49.972;8.452;2022-12-16T14:03:56;100489.41;;;-1.51;93.91
56876;BME280;42622;49.972;8.452;2022-12-16T14:06:44;100498.97;;;-1.54;94.36
56876;BME280;42622;49.972;8.452;2022-12-16T14:09:35;100499.88;;;-1.57;94.93
56876;BME280;42622;49.972;8.452;2022-12-16T14:16:15;100503.47;;;-1.65;94.84
56876;BME280;42622;49.972;8.452;2022-12-16T14:22:56;100505.34;;;-1.75;95.30
56876;BME280;42622;49.972;8.452;2022-12-16T14:25:56;100514.09;;;-1.82;95.99
56876;BME280;42622;49.972;8.452;2022-12-16T14:28:44;100519.38;;;-1.88;96.45
56876;BME280;42622;49.972;8.452;2022-12-16T14:31:38;100526.41;;;-1.97;95.97
56876;BME280;42622;49.972;8.452;2022-12-16T14:34:26;100533.41;;;-2.03;96.17
56876;BME280;42622;49.972;8.452;2022-12-16T14:37:20;100526.50;;;-2.03;96.94
56876;BME280;42622;49.972;8.452;2022-12-16T14:40:29;100535.13;;;-2.01;96.49
56876;BME280;42622;49.972;8.452;2022-12-16T14:43:15;100544.66;;;-2.04;96.90
56876;BME280;42622;49.972;8.452;2022-12-16T14:46:38;100550.78;;;-2.10;97.28
56876;BME280;42622;49.972;8.452;2022-12-16T14:49:27;100551.75;;;-2.15;96.69
56876;BME280;42622;49.972;8.452;2022-12-16T14:52:23;100555.25;;;-2.23;97.08
56876;BME280;42622;49.972;8.452;2022-12-16T14:55:31;100555.28;;;-2.24;97.07
56876;BME280;42622;49.972;8.452;2022-12-16T14:58:19;100559.69;;;-2.31;97.50
56876;BME280;42622;49.972;8.452;2022-12-16T15:01:13;100574.41;;;-2.33;97.47
56876;BME280;42622;49.972;8.452;2022-12-16T15:04:03;100578.81;;;-2.39;97.93
56876;BME280;42622;49.972;8.452;2022-12-16T15:06:54;100580.66;;;-2.51;97.67
56876;BME280;42622;49.972;8.452;2022-12-16T15:09:49;100580.78;;;-2.61;98.18
56876;BME280;42622;49.972;8.452;2022-12-16T15:12:45;100596.44;;;-2.74;97.79
56876;BME280;42622;49.972;8.452;2022-12-16T15:15:45;100593.13;;;-2.85;98.83
56876;BME280;42622;49.972;8.452;2022-12-16T15:18:39;100594.06;;;-2.95;99.20
56876;BME280;42622;49.972;8.452;2022-12-16T15:21:28;100593.28;;;-3.05;99.15
56876;BME280;42622;49.972;8.452;2022-12-16T15:24:24;100601.97;;;-3.09;99.31
56876;BME280;42622;49.972;8.452;2022-12-16T15:27:23;100610.56;;;-3.07;99.79
56876;BME280;42622;49.972;8.452;2022-12-16T15:30:36;100618.31;;;-3.08;100.00
56876;BME280;42622;49.972;8.452;2022-12-16T15:36:35;100615.88;;;-3.25;100.00
56876;BME280;42622;49.972;8.452;2022-12-16T15:39:35;100626.31;;;-3.34;100.00